Tolono, Illinois
Current Conditions -  °F | °C
As of 5:53 PM on Tuesday 25 Nov 2014 (Local Time) from KCMI Reporting Station
Overcast Overcast  
Wind Chill: 27°   Ceiling: 1700
Heat Index: 27°   Visibility: 10mi
Dew Point: 21°   Wind: 0mph
Humidity: 78%   Direction: NA
Pressure: 30.19"   Gusts: NA
Location:  39.99°N, 88.26°W
Report Text: KCMI 252353Z 00000KT 10SM OVC017 M03/M06 A3019 RMK AO2 SLP234 T10281061 11022 21033 53009 $
Loading
Personal Weather Stations






























Interactive Weather Map New forecast layout! Learn more

10-Day Weather Forecast

Advertisements
Track Severe Weather on mobile